createdAt,value
2023-08-14T00:01:59.201Z,4.57
2023-08-14T00:04:25.758Z,4.63
2023-08-14T00:06:52.313Z,5.10
2023-08-14T00:09:18.952Z,4.50
2023-08-14T00:11:45.493Z,3.83
2023-08-14T00:14:12.005Z,4.40
2023-08-14T00:16:38.624Z,4.80
2023-08-14T00:19:05.244Z,4.43
2023-08-14T00:21:31.823Z,4.27
2023-08-14T00:23:58.334Z,3.93
2023-08-14T00:26:24.844Z,4.13
2023-08-14T00:28:51.356Z,4.77
2023-08-14T00:31:18.274Z,4.57
2023-08-14T00:33:45.071Z,4.40
2023-08-14T00:36:11.856Z,4.53
2023-08-14T00:38:38.388Z,4.03
2023-08-14T00:41:05.037Z,4.80
2023-08-14T00:43:31.666Z,4.17
2023-08-14T00:45:58.617Z,4.77
2023-08-14T00:48:26.312Z,4.37
2023-08-14T00:50:54.584Z,4.77
2023-08-14T00:53:21.314Z,4.67
2023-08-14T00:55:48.259Z,4.30
2023-08-14T00:58:15.015Z,4.37
2023-08-14T01:00:43.302Z,4.33
2023-08-14T01:03:10.025Z,4.07
2023-08-14T01:05:37.254Z,4.80
2023-08-14T01:08:03.990Z,4.80
2023-08-14T01:10:47.130Z,4.80
2023-08-14T01:13:32.113Z,4.67
2023-08-14T01:16:00.153Z,4.80
2023-08-14T01:18:27.873Z,4.93
2023-08-14T01:21:05.070Z,5.20
2023-08-14T01:23:43.414Z,5.03
2023-08-14T01:26:10.180Z,4.93
2023-08-14T01:28:36.880Z,5.53
2023-08-14T01:31:03.486Z,5.10
2023-08-14T01:33:30.076Z,5.17
2023-08-14T01:36:04.639Z,5.27
2023-08-14T01:38:40.913Z,5.70
2023-08-14T01:41:15.069Z,5.70
2023-08-14T01:43:46.267Z,5.33
2023-08-14T01:46:13.634Z,5.47
2023-08-14T01:48:41.268Z,5.30
2023-08-14T01:51:08.448Z,4.80
2023-08-14T01:53:36.662Z,6.17
2023-08-14T01:56:03.467Z,5.20
2023-08-14T01:58:31.152Z,5.43
2023-08-14T02:00:57.665Z,6.00
2023-08-14T02:03:24.397Z,5.13
2023-08-14T02:05:51.027Z,5.53
2023-08-14T02:08:17.573Z,6.10
2023-08-14T02:10:44.076Z,6.30
2023-08-14T02:13:10.605Z,6.37
2023-08-14T02:15:37.123Z,6.73
2023-08-14T02:18:04.081Z,6.57
2023-08-14T02:20:30.769Z,6.53
2023-08-14T02:22:57.290Z,6.33
2023-08-14T02:25:23.767Z,6.93
2023-08-14T02:27:50.417Z,6.20
2023-08-14T02:30:17.020Z,7.03
2023-08-14T02:32:43.572Z,7.00
2023-08-14T02:35:10.147Z,6.67
2023-08-14T02:37:36.698Z,6.97
2023-08-14T02:40:04.807Z,7.20
2023-08-14T02:42:31.416Z,6.93
2023-08-14T02:44:58.009Z,6.73
2023-08-14T02:47:24.548Z,7.40
2023-08-14T02:49:51.070Z,6.80
2023-08-14T02:52:17.864Z,8.37
2023-08-14T02:54:44.605Z,8.43
2023-08-14T02:57:11.183Z,7.97
2023-08-14T02:59:37.754Z,7.97
2023-08-14T03:02:04.364Z,8.37
2023-08-14T03:04:31.233Z,8.10
2023-08-14T03:06:57.925Z,7.77
2023-08-14T03:09:24.420Z,7.80
2023-08-14T03:11:50.987Z,9.00
2023-08-14T03:14:17.486Z,8.30
2023-08-14T03:16:44.096Z,8.43
2023-08-14T03:19:10.697Z,8.77
2023-08-14T03:21:38.405Z,8.90
2023-08-14T03:24:06.878Z,9.13
2023-08-14T03:26:33.941Z,8.77
2023-08-14T03:29:00.555Z,9.30
2023-08-14T03:31:27.363Z,9.03
2023-08-14T03:33:53.952Z,9.37
2023-08-14T03:36:20.608Z,9.47
2023-08-14T03:38:47.281Z,9.27
2023-08-14T03:41:14.279Z,8.83
2023-08-14T03:43:40.864Z,9.37
2023-08-14T03:46:07.588Z,9.47
2023-08-14T03:48:35.829Z,9.63
2023-08-14T03:51:02.407Z,10.57
2023-08-14T03:53:29.065Z,9.30
2023-08-14T03:55:55.826Z,9.80
2023-08-14T03:58:22.558Z,9.80
2023-08-14T04:00:49.056Z,9.97
2023-08-14T04:03:16.011Z,10.33
2023-08-14T04:05:43.475Z,10.10
2023-08-14T04:08:10.381Z,10.23
2023-08-14T04:10:38.399Z,9.87
2023-08-14T04:13:05.314Z,10.63
2023-08-14T04:15:32.860Z,10.30
2023-08-14T04:17:59.613Z,10.23
2023-08-14T04:20:26.172Z,9.57
2023-08-14T04:22:52.750Z,11.17
2023-08-14T04:25:21.172Z,10.30
2023-08-14T04:27:47.753Z,11.13
2023-08-14T04:30:14.824Z,9.90
2023-08-14T04:32:42.209Z,10.70
2023-08-14T04:35:09.668Z,10.50
2023-08-14T04:37:36.726Z,10.43
2023-08-14T04:40:05.872Z,10.03
2023-08-14T04:42:33.884Z,10.20
2023-08-14T04:45:00.671Z,9.77
2023-08-14T04:47:27.336Z,10.43
2023-08-14T04:49:54.055Z,10.10
2023-08-14T04:52:21.818Z,10.00
2023-08-14T04:54:48.454Z,9.43
2023-08-14T04:57:14.991Z,9.60
2023-08-14T04:59:41.530Z,11.50
2023-08-14T05:02:08.223Z,9.37
2023-08-14T05:04:35.378Z,9.40
2023-08-14T05:07:02.533Z,9.20
2023-08-14T05:09:29.135Z,8.70
2023-08-14T05:11:55.725Z,8.40
2023-08-14T05:14:22.360Z,9.13
2023-08-14T05:16:49.030Z,9.03
2023-08-14T05:19:15.682Z,9.00
2023-08-14T05:21:42.949Z,8.90
2023-08-14T05:24:10.111Z,9.13
2023-08-14T05:26:36.912Z,9.10
2023-08-14T05:29:03.705Z,9.53
2023-08-14T05:31:30.341Z,9.20
2023-08-14T05:33:57.252Z,8.37
2023-08-14T05:36:23.787Z,8.40
2023-08-14T05:38:50.743Z,8.90
2023-08-14T05:41:18.082Z,8.53
2023-08-14T05:43:44.720Z,9.13
2023-08-14T05:46:11.410Z,8.03
2023-08-14T05:48:38.001Z,8.50
2023-08-14T05:51:04.599Z,8.00
2023-08-14T05:53:31.895Z,8.40
2023-08-14T05:55:58.430Z,8.53
2023-08-14T05:58:24.989Z,7.43
2023-08-14T06:00:51.902Z,8.10
2023-08-14T06:03:25.936Z,8.30
2023-08-14T06:05:56.187Z,7.47
2023-08-14T06:08:22.791Z,7.00
2023-08-14T06:10:49.342Z,7.23
2023-08-14T06:13:16.017Z,7.63
2023-08-14T06:15:42.738Z,6.57
2023-08-14T06:18:09.320Z,5.93
2023-08-14T06:20:37.015Z,6.93
2023-08-14T06:23:03.660Z,6.05
2023-08-14T06:25:32.563Z,6.22
2023-08-14T06:27:59.083Z,6.97
2023-08-14T06:30:26.566Z,6.32
2023-08-14T06:32:53.234Z,5.53
2023-08-14T06:35:19.849Z,6.00
2023-08-14T06:37:46.512Z,5.30
2023-08-14T06:40:13.440Z,6.05
2023-08-14T06:42:40.010Z,5.88
2023-08-14T06:45:07.202Z,5.75
2023-08-14T06:47:33.825Z,5.70
2023-08-14T06:50:00.437Z,6.35
2023-08-14T06:52:26.954Z,5.70
2023-08-14T06:54:53.764Z,5.65
2023-08-14T06:57:20.379Z,5.22
2023-08-14T06:59:46.990Z,6.10
2023-08-14T07:02:14.053Z,5.82
2023-08-14T07:04:40.775Z,5.72
2023-08-14T07:07:07.328Z,6.00
2023-08-14T07:09:35.407Z,5.30
2023-08-14T07:12:01.990Z,5.15
2023-08-14T07:14:31.171Z,5.68
2023-08-14T07:16:58.034Z,5.50
2023-08-14T07:19:24.607Z,4.68
2023-08-14T07:21:51.097Z,5.35
2023-08-14T07:24:17.659Z,4.60
2023-08-14T07:26:44.452Z,4.57
2023-08-14T07:29:11.080Z,5.43
2023-08-14T07:31:37.842Z,4.30
2023-08-14T07:34:04.582Z,5.30
2023-08-14T07:36:31.884Z,4.63
2023-08-14T07:38:58.396Z,4.85
2023-08-14T07:41:24.959Z,4.80
2023-08-14T07:43:51.511Z,4.50
2023-08-14T07:46:19.533Z,4.10
2023-08-14T07:48:46.230Z,4.43
2023-08-14T07:51:12.860Z,3.80
2023-08-14T07:53:40.327Z,3.75
2023-08-14T07:56:06.857Z,3.78
2023-08-14T07:58:33.447Z,3.80
2023-08-14T08:01:00.107Z,3.60
2023-08-14T08:03:26.672Z,3.75
2023-08-14T08:05:53.475Z,3.55
2023-08-14T08:08:20.017Z,3.67
2023-08-14T08:10:46.652Z,3.33
2023-08-14T08:13:13.385Z,3.40
2023-08-14T08:15:40.006Z,3.47
2023-08-14T08:18:06.615Z,3.83
2023-08-14T08:20:33.304Z,3.80
2023-08-14T08:22:59.834Z,3.10
2023-08-14T08:25:26.542Z,3.55
2023-08-14T08:27:53.088Z,3.40
2023-08-14T08:30:19.928Z,3.88
2023-08-14T08:32:46.731Z,3.17
2023-08-14T08:35:14.219Z,3.45
2023-08-14T08:37:42.574Z,3.67
2023-08-14T08:40:09.737Z,3.20
2023-08-14T08:42:37.502Z,3.42
2023-08-14T08:45:05.378Z,3.67
2023-08-14T08:47:36.163Z,3.35
2023-08-14T08:50:04.561Z,3.83
2023-08-14T08:52:35.380Z,4.20
2023-08-14T08:55:02.953Z,3.85
2023-08-14T08:57:30.115Z,4.07
2023-08-14T08:59:59.014Z,3.67
2023-08-14T09:02:25.907Z,3.97
2023-08-14T09:04:52.571Z,4.10
2023-08-14T09:07:19.288Z,3.90
2023-08-14T09:09:46.154Z,4.10
2023-08-14T09:12:13.252Z,3.90
2023-08-14T09:14:47.083Z,4.30
2023-08-14T09:17:14.647Z,4.50
2023-08-14T09:19:43.139Z,4.10
2023-08-14T09:22:09.759Z,4.10
2023-08-14T09:24:40.604Z,4.32
2023-08-14T09:27:07.372Z,3.80
2023-08-14T09:29:35.315Z,3.72
2023-08-14T09:32:02.664Z,4.97
2023-08-14T09:34:31.413Z,3.92
2023-08-14T09:36:58.814Z,4.28
2023-08-14T09:39:25.510Z,4.93
2023-08-14T09:41:52.119Z,4.70
2023-08-14T09:44:22.513Z,4.65
2023-08-14T09:46:50.466Z,4.70
2023-08-14T09:49:17.895Z,5.10
2023-08-14T09:51:54.784Z,5.07
2023-08-14T09:54:32.569Z,4.82
2023-08-14T09:57:00.838Z,4.67
2023-08-14T09:59:28.165Z,4.57
2023-08-14T10:01:55.801Z,5.07
2023-08-14T10:04:23.590Z,4.95
2023-08-14T10:06:52.091Z,5.07
2023-08-14T10:09:22.290Z,5.30
2023-08-14T10:11:49.438Z,5.50
2023-08-14T10:14:16.643Z,5.28
2023-08-14T10:16:43.843Z,4.47
2023-08-14T10:19:14.361Z,5.72
2023-08-14T10:21:41.913Z,5.03
2023-08-14T10:24:08.998Z,4.80
2023-08-14T10:26:37.409Z,5.38
2023-08-14T10:29:04.847Z,4.97
2023-08-14T10:31:31.890Z,4.97
2023-08-14T10:33:59.345Z,5.20
2023-08-14T10:36:29.450Z,5.18
2023-08-14T10:39:02.895Z,4.40
2023-08-14T10:41:33.926Z,4.53
2023-08-14T10:44:08.351Z,4.72
2023-08-14T10:46:42.846Z,4.88
2023-08-14T10:49:12.795Z,5.30
2023-08-14T10:51:42.099Z,5.13
2023-08-14T10:54:17.732Z,4.68
2023-08-14T10:56:47.225Z,4.00
2023-08-14T10:59:24.771Z,4.22
2023-08-14T11:01:53.649Z,3.90
2023-08-14T11:04:20.255Z,3.85
2023-08-14T11:07:03.075Z,4.32
2023-08-14T11:09:33.530Z,3.95
2023-08-14T11:12:09.110Z,4.22
2023-08-14T11:14:42.192Z,4.07
2023-08-14T11:17:10.044Z,3.78
2023-08-14T11:19:38.552Z,3.67
2023-08-14T11:22:05.421Z,3.45
2023-08-14T11:24:33.561Z,3.30
2023-08-14T11:27:01.693Z,3.30
2023-08-14T11:29:30.865Z,3.20
2023-08-14T11:32:00.180Z,3.38
2023-08-14T11:34:26.764Z,3.47
2023-08-14T11:39:32.637Z,3.35
2023-08-14T11:41:59.206Z,3.70
2023-08-14T11:44:26.032Z,3.60
2023-08-14T11:46:53.756Z,2.92
2023-08-14T11:49:20.674Z,3.50
2023-08-14T11:51:47.667Z,4.00
2023-08-14T11:54:14.589Z,3.72
2023-08-14T11:56:41.549Z,3.10
2023-08-14T11:59:08.394Z,3.50
2023-08-14T12:01:37.655Z,3.40
2023-08-14T12:04:05.951Z,3.42
2023-08-14T12:06:33.311Z,2.90
2023-08-14T12:09:03.744Z,3.40
2023-08-14T12:11:30.407Z,3.28
2023-08-14T12:13:56.966Z,3.00
2023-08-14T12:16:26.865Z,3.22
2023-08-14T12:18:55.093Z,3.03
2023-08-14T12:21:21.698Z,3.20
2023-08-14T12:23:50.078Z,2.97
2023-08-14T12:26:16.748Z,3.40
2023-08-14T12:28:44.237Z,3.00
2023-08-14T12:31:11.672Z,3.15
2023-08-14T12:33:45.182Z,3.30
2023-08-14T12:36:13.827Z,3.40
2023-08-14T12:38:40.386Z,2.88
2023-08-14T12:41:06.944Z,2.78
2023-08-14T12:43:40.387Z,2.40
2023-08-14T12:46:10.278Z,3.10
2023-08-14T12:48:37.278Z,2.88
2023-08-14T12:51:04.844Z,2.90
2023-08-14T12:53:31.510Z,3.17
2023-08-14T12:56:03.634Z,2.92
2023-08-14T12:58:31.285Z,2.95
2023-08-14T13:01:04.496Z,2.80
2023-08-14T13:06:01.820Z,2.65
2023-08-14T13:08:28.365Z,2.75
2023-08-14T13:10:54.895Z,2.65
2023-08-14T13:13:24.976Z,3.08
2023-08-14T13:15:51.892Z,3.03
2023-08-14T13:18:18.673Z,2.50
2023-08-14T13:20:45.230Z,2.58
2023-08-14T13:23:11.748Z,2.60
2023-08-14T13:25:42.379Z,2.95
2023-08-14T13:28:09.598Z,2.58
2023-08-14T13:30:36.821Z,3.10
2023-08-14T13:33:03.701Z,2.38
2023-08-14T13:35:30.210Z,2.72
2023-08-14T13:37:56.749Z,2.70
2023-08-14T13:40:23.609Z,2.67
2023-08-14T13:42:50.153Z,2.88
2023-08-14T13:45:19.009Z,2.72
2023-08-14T13:47:54.177Z,2.70
2023-08-14T13:50:33.061Z,2.85
2023-08-14T13:53:03.772Z,3.28
2023-08-14T13:55:35.168Z,2.70
2023-08-14T13:58:02.380Z,3.33
2023-08-14T14:00:30.798Z,2.90
2023-08-14T14:02:59.423Z,3.05
2023-08-14T14:05:26.844Z,2.97
2023-08-14T14:07:55.880Z,3.25
2023-08-14T14:10:24.992Z,3.08
2023-08-14T14:15:21.303Z,3.28
2023-08-14T14:17:48.071Z,3.25
2023-08-14T14:20:16.705Z,2.88
2023-08-14T14:22:43.462Z,2.70
2023-08-14T14:25:10.100Z,3.37
2023-08-14T14:27:36.680Z,2.88
2023-08-14T14:30:03.329Z,3.00
2023-08-14T14:32:29.919Z,3.30
2023-08-14T14:34:56.453Z,3.28
2023-08-14T14:37:23.035Z,3.05
2023-08-14T14:39:49.688Z,3.70
2023-08-14T14:42:16.366Z,4.30
2023-08-14T14:44:44.182Z,2.92
2023-08-14T14:47:10.651Z,3.22
2023-08-14T14:49:37.135Z,2.80
2023-08-14T14:52:04.190Z,3.08
2023-08-14T14:54:30.720Z,3.50
2023-08-14T14:56:57.270Z,2.95
2023-08-14T14:59:23.907Z,3.35
2023-08-14T15:01:50.491Z,3.20
2023-08-14T15:04:16.997Z,3.60
2023-08-14T15:06:43.516Z,3.72
2023-08-14T15:09:10.073Z,3.00
2023-08-14T15:11:36.741Z,3.28
2023-08-14T15:14:03.395Z,3.00
2023-08-14T15:16:31.508Z,3.45
2023-08-14T15:18:59.925Z,3.47
2023-08-14T15:21:26.559Z,2.92
2023-08-14T15:23:53.134Z,3.35
2023-08-14T15:26:20.275Z,3.40
2023-08-14T15:28:47.089Z,3.42
2023-08-14T15:31:13.666Z,3.25
2023-08-14T15:33:40.227Z,3.40
2023-08-14T15:36:06.756Z,3.50
2023-08-14T15:38:33.290Z,3.50
2023-08-14T15:40:59.875Z,3.60
2023-08-14T15:43:26.904Z,3.38
2023-08-14T15:46:04.514Z,3.38
2023-08-14T15:48:31.144Z,3.80
2023-08-14T15:50:57.677Z,3.30
2023-08-14T15:53:24.232Z,3.53
2023-08-14T15:55:50.803Z,3.50
2023-08-14T15:58:17.348Z,3.60
2023-08-14T16:00:45.127Z,3.40
2023-08-14T16:03:12.193Z,3.38
2023-08-14T16:05:39.035Z,3.50
2023-08-14T16:08:06.459Z,3.60
2023-08-14T16:10:32.989Z,4.07
2023-08-14T16:12:59.605Z,3.63
2023-08-14T16:15:26.127Z,3.75
2023-08-14T16:17:52.840Z,3.70
2023-08-14T16:20:19.429Z,3.78
2023-08-14T16:22:45.949Z,3.53
2023-08-14T16:25:12.752Z,3.83
2023-08-14T16:27:39.379Z,3.88
2023-08-14T16:30:06.629Z,4.10
2023-08-14T16:32:33.219Z,4.00
2023-08-14T16:34:59.859Z,3.83
2023-08-14T16:37:26.556Z,3.78
2023-08-14T16:39:53.063Z,3.95
2023-08-14T16:42:19.638Z,4.37
2023-08-14T16:44:46.213Z,4.00
2023-08-14T16:47:13.769Z,3.75
2023-08-14T16:49:40.357Z,3.55
2023-08-14T16:52:06.990Z,4.50
2023-08-14T16:54:33.533Z,4.00
2023-08-14T16:57:00.041Z,3.97
2023-08-14T16:59:26.714Z,4.35
2023-08-14T17:01:53.312Z,4.22
2023-08-14T17:04:19.880Z,4.07
2023-08-14T17:06:46.444Z,3.38
2023-08-14T17:09:14.904Z,3.78
2023-08-14T17:11:41.955Z,3.50
2023-08-14T17:14:08.621Z,4.15
2023-08-14T17:16:36.666Z,3.67
2023-08-14T17:19:03.514Z,3.77
2023-08-14T17:21:30.148Z,3.75
2023-08-14T17:23:56.788Z,4.05
2023-08-14T17:26:23.487Z,3.20
2023-08-14T17:28:50.137Z,3.30
2023-08-14T17:31:16.810Z,3.40
2023-08-14T17:33:43.391Z,3.83
2023-08-14T17:36:10.529Z,3.25
2023-08-14T17:38:37.291Z,3.28
2023-08-14T17:41:04.386Z,3.45
2023-08-14T17:43:31.050Z,3.08
2023-08-14T17:45:58.713Z,3.50
2023-08-14T17:48:25.534Z,3.65
2023-08-14T17:50:53.094Z,3.78
2023-08-14T17:53:20.196Z,3.45
2023-08-14T17:55:46.801Z,3.35
2023-08-14T17:58:13.493Z,3.75
2023-08-14T18:00:46.978Z,3.65
2023-08-14T18:03:13.941Z,3.90
2023-08-14T18:05:40.556Z,4.10
2023-08-14T18:08:07.170Z,3.80
2023-08-14T18:10:33.650Z,4.20
2023-08-14T18:13:00.228Z,3.80
2023-08-14T18:15:26.731Z,3.63
2023-08-14T18:17:53.401Z,3.60
2023-08-14T18:20:20.073Z,3.88
2023-08-14T18:22:47.831Z,3.72
2023-08-14T18:25:14.445Z,4.18
2023-08-14T18:27:41.052Z,3.33
2023-08-14T18:30:09.913Z,3.78
2023-08-14T18:32:38.389Z,3.92
2023-08-14T18:35:05.345Z,3.97
2023-08-14T18:37:31.876Z,4.10
2023-08-14T18:39:58.577Z,4.20
2023-08-14T18:42:25.444Z,4.18
2023-08-14T18:44:52.006Z,3.80
2023-08-14T18:47:18.876Z,4.07
2023-08-14T18:49:46.892Z,4.30
2023-08-14T18:52:13.899Z,4.03
2023-08-14T18:54:42.826Z,3.93
2023-08-14T18:57:11.698Z,3.83
2023-08-14T18:59:45.285Z,3.78
2023-08-14T19:02:12.028Z,4.05
2023-08-14T19:04:43.151Z,4.13
2023-08-14T19:07:10.449Z,4.00
2023-08-14T19:09:37.013Z,4.13
2023-08-14T19:12:05.343Z,4.72
2023-08-14T19:14:31.987Z,4.20
2023-08-14T19:16:58.670Z,4.68
2023-08-14T19:19:25.216Z,5.13
2023-08-14T19:21:51.808Z,4.33
2023-08-14T19:24:18.585Z,4.40
2023-08-14T19:26:46.368Z,5.10
2023-08-14T19:29:13.079Z,5.55
2023-08-14T19:31:39.661Z,5.15
2023-08-14T19:34:06.287Z,4.82
2023-08-14T19:36:35.200Z,4.90
2023-08-14T19:39:02.108Z,4.95
2023-08-14T19:41:28.747Z,4.97
2023-08-14T19:43:56.145Z,4.85
2023-08-14T19:46:22.803Z,4.90
2023-08-14T19:48:49.442Z,5.60
2023-08-14T19:51:16.060Z,5.13
2023-08-14T19:53:42.768Z,6.03
2023-08-14T19:56:09.411Z,6.05
2023-08-14T19:58:36.595Z,5.75
2023-08-14T20:01:03.302Z,5.20
2023-08-14T20:03:30.571Z,5.38
2023-08-14T20:05:57.325Z,7.00
2023-08-14T20:08:24.620Z,5.90
2023-08-14T20:10:51.576Z,5.57
2023-08-14T20:13:18.558Z,5.25
2023-08-14T20:15:48.138Z,6.22
2023-08-14T20:18:15.498Z,6.05
2023-08-14T20:20:43.505Z,6.07
2023-08-14T20:23:10.851Z,5.97
2023-08-14T20:25:38.196Z,6.00
2023-08-14T20:28:05.674Z,5.60
2023-08-14T20:30:33.494Z,5.60
2023-08-14T20:33:00.132Z,6.45
2023-08-14T20:35:26.728Z,5.68
2023-08-14T20:37:53.251Z,6.03
2023-08-14T20:40:19.785Z,6.18
2023-08-14T20:42:46.650Z,7.13
2023-08-14T20:45:15.986Z,5.57
2023-08-14T20:47:42.521Z,6.63
2023-08-14T20:50:09.582Z,6.63
2023-08-14T20:52:36.621Z,7.00
2023-08-14T20:55:03.268Z,7.53
2023-08-14T20:57:30.169Z,7.00
2023-08-14T20:59:56.827Z,6.28
2023-08-14T21:02:23.466Z,5.88
2023-08-14T21:04:50.071Z,6.68
2023-08-14T21:07:16.695Z,6.72
2023-08-14T21:09:43.243Z,6.28
2023-08-14T21:12:09.956Z,6.55
2023-08-14T21:14:36.568Z,6.43
2023-08-14T21:17:03.091Z,7.00
2023-08-14T21:19:29.569Z,7.55
2023-08-14T21:21:56.061Z,6.90
2023-08-14T21:24:22.556Z,6.50
2023-08-14T21:26:49.095Z,6.72
2023-08-14T21:29:15.622Z,7.30
2023-08-14T21:31:42.231Z,7.13
2023-08-14T21:34:13.614Z,7.30
2023-08-14T21:36:40.155Z,7.65
2023-08-14T21:39:06.743Z,7.07
2023-08-14T21:41:33.303Z,7.15
2023-08-14T21:43:59.852Z,7.10
2023-08-14T21:46:29.915Z,7.45
2023-08-14T21:48:56.860Z,7.73
2023-08-14T21:51:24.172Z,8.10
2023-08-14T21:53:50.794Z,7.78
2023-08-14T21:56:17.447Z,7.20
2023-08-14T21:58:44.091Z,8.25
2023-08-14T22:01:10.649Z,7.70
2023-08-14T22:03:37.251Z,7.65
2023-08-14T22:06:04.388Z,8.10
2023-08-14T22:08:31.380Z,7.65
2023-08-14T22:10:58.511Z,7.90
2023-08-14T22:13:25.322Z,7.97
2023-08-14T22:15:51.943Z,8.47
2023-08-14T22:18:19.134Z,7.63
2023-08-14T22:20:46.287Z,8.17
2023-08-14T22:23:14.032Z,8.45
2023-08-14T22:25:42.303Z,8.27
2023-08-14T22:28:08.951Z,8.33
2023-08-14T22:30:36.367Z,8.48
2023-08-14T22:33:04.981Z,8.10
2023-08-14T22:35:31.817Z,8.68
2023-08-14T22:37:58.390Z,7.85
2023-08-14T22:40:26.020Z,8.48
2023-08-14T22:42:52.566Z,7.95
2023-08-14T22:45:19.193Z,8.40
2023-08-14T22:47:45.766Z,8.40
2023-08-14T22:50:12.522Z,8.30
2023-08-14T22:52:39.098Z,8.40
2023-08-14T22:55:05.898Z,8.18
2023-08-14T22:57:32.405Z,8.35
2023-08-14T22:59:58.980Z,8.77
2023-08-14T23:02:25.614Z,7.75
2023-08-14T23:04:52.239Z,8.30
2023-08-14T23:07:19.058Z,9.20
2023-08-14T23:09:45.890Z,8.70
2023-08-14T23:12:12.473Z,8.50
2023-08-14T23:14:39.108Z,8.02
2023-08-14T23:17:05.798Z,7.70
2023-08-14T23:19:32.279Z,8.15
2023-08-14T23:21:59.196Z,8.00
2023-08-14T23:24:25.819Z,8.20
2023-08-14T23:26:52.399Z,8.60
2023-08-14T23:29:18.890Z,8.37
2023-08-14T23:31:45.829Z,8.80
2023-08-14T23:34:12.358Z,8.47
2023-08-14T23:36:38.895Z,8.70
2023-08-14T23:39:05.913Z,8.83
2023-08-14T23:41:33.354Z,8.80
2023-08-14T23:43:59.864Z,8.80
2023-08-14T23:46:26.672Z,8.87
2023-08-14T23:48:53.216Z,8.77
2023-08-14T23:51:19.983Z,8.60
2023-08-14T23:53:46.513Z,8.80
2023-08-14T23:56:13.178Z,8.77
2023-08-14T23:58:39.645Z,8.17
